Time;durP1;ratioP1;P1;durP2;ratioP2;P2;SDS_P1;SDS_P2;PMS_P1;PMS_P2;Temp;Humidity;BMP_temperature;BMP_pressure;BME280_temperature;BME280_humidity;BME280_pressure;Samples;Min_cycle;Max_cycle;Signal;HPM_P1;HPM_P2
2021/03/22 00:01:26;;;;;;;4.03;2.50;;;;;;;0.69;67.06;97074.16;1661832;86;21627;-65
2021/03/22 00:03:54;;;;;;;3.45;3.15;;;;;;;0.72;67.40;97073.94;1653760;85;21592;-65
2021/03/22 00:06:23;;;;;;;3.45;3.12;;;;;;;0.72;66.83;97075.22;1653617;86;21223;-64
2021/03/22 00:08:56;;;;;;;4.95;3.47;;;;;;;0.72;66.45;97070.56;1653984;87;21168;-65
2021/03/22 00:11:24;;;;;;;5.03;3.77;;;;;;;0.74;66.06;97064.91;1653955;86;21175;-66
2021/03/22 00:13:52;;;;;;;3.25;3.02;;;;;;;0.76;66.11;97059.22;1653727;86;21599;-64
2021/03/22 00:16:21;;;;;;;4.03;3.17;;;;;;;0.78;66.38;97059.91;1653677;86;21184;-64
2021/03/22 00:18:49;;;;;;;9.50;4.58;;;;;;;0.79;66.63;97051.33;1653567;87;21584;-64
2021/03/22 00:21:17;;;;;;;3.50;2.98;;;;;;;0.81;66.93;97052.88;1653847;86;21692;-64
2021/03/22 00:23:46;;;;;;;4.55;3.77;;;;;;;0.81;66.90;97041.38;1653716;86;21200;-61
2021/03/22 00:26:14;;;;;;;3.70;3.17;;;;;;;0.82;66.58;97044.73;1653529;87;21210;-62
2021/03/22 00:28:42;;;;;;;5.17;4.08;;;;;;;0.81;66.54;97041.38;1653675;86;21151;-62
2021/03/22 00:31:13;;;;;;;5.08;3.42;;;;;;;0.84;66.55;97041.62;1653913;86;21155;-62
2021/03/22 00:33:42;;;;;;;6.15;5.55;;;;;;;0.84;66.06;97038.61;1653649;87;21140;-62
2021/03/22 00:36:11;;;;;;;6.97;3.83;;;;;;;0.85;66.43;97037.69;1653581;86;21251;-62
2021/03/22 00:38:39;;;;;;;7.58;4.33;;;;;;;0.82;66.10;97023.00;1653668;86;21176;-61
2021/03/22 00:41:07;;;;;;;4.72;3.80;;;;;;;0.78;66.15;97023.68;1653828;87;21211;-61
2021/03/22 00:43:35;;;;;;;4.50;4.00;;;;;;;0.76;66.29;97020.87;1653968;86;21596;-61
2021/03/22 00:46:04;;;;;;;10.55;5.65;;;;;;;0.72;65.90;97011.80;1653754;87;21239;-61
2021/03/22 00:48:34;;;;;;;5.05;3.45;;;;;;;0.68;65.83;97005.26;1653807;87;21167;-64
2021/03/22 00:51:06;;;;;;;5.92;4.37;;;;;;;0.63;66.70;97006.84;1654062;86;21203;-61
2021/03/22 00:53:35;;;;;;;6.12;4.58;;;;;;;0.55;66.46;97003.17;1654219;86;21234;-64
2021/03/22 00:56:05;;;;;;;9.50;5.00;;;;;;;0.50;66.22;96998.86;1653938;86;21172;-63
2021/03/22 00:58:33;;;;;;;3.92;3.33;;;;;;;0.45;66.08;97001.27;1653750;87;21235;-64
2021/03/22 01:01:01;;;;;;;3.33;2.65;;;;;;;0.42;66.29;96993.81;1654106;87;21175;-62
2021/03/22 01:03:33;;;;;;;10.75;5.30;;;;;;;0.41;66.33;96998.56;1651474;86;21183;-61
2021/03/22 01:06:05;;;;;;;6.53;4.42;;;;;;;0.41;66.29;96996.00;1663249;86;21170;-61
2021/03/22 01:08:37;;;;;;;5.10;3.30;;;;;;;0.38;66.40;96994.94;1663143;86;21174;-66
2021/03/22 01:11:13;;;;;;;4.83;2.15;;;;;;;0.37;66.55;96981.81;1663082;86;21191;-65
2021/03/22 01:13:44;;;;;;;3.12;2.83;;;;;;;0.37;66.46;96980.53;1663419;85;21174;-67
2021/03/22 01:16:15;;;;;;;3.52;2.05;;;;;;;0.39;66.43;96977.86;1650826;85;21163;-65
2021/03/22 01:18:49;;;;;;;4.72;2.25;;;;;;;0.40;66.71;96975.66;1663203;86;21207;-64
2021/03/22 01:21:44;;;;;;;3.42;3.12;;;;;;;0.39;66.08;96965.91;1663166;85;21233;-66
2021/03/22 01:24:15;;;;;;;3.00;2.62;;;;;;;0.39;66.06;96968.46;1663083;85;21215;-64
2021/03/22 01:26:43;;;;;;;2.77;2.58;;;;;;;0.36;66.43;96957.19;1663118;86;21591;-65
2021/03/22 01:29:19;;;;;;;4.90;2.98;;;;;;;0.32;66.31;96954.94;1663470;85;21639;-65
2021/03/22 01:31:47;;;;;;;4.55;2.67;;;;;;;0.28;66.33;96949.23;1663411;86;21167;-65
2021/03/22 01:34:16;;;;;;;3.85;2.62;;;;;;;0.23;66.46;96944.91;1662975;86;21305;-65
2021/03/22 01:36:44;;;;;;;7.42;3.30;;;;;;;0.21;66.53;96939.08;1663108;85;21174;-64
2021/03/22 01:39:20;;;;;;;9.78;4.12;;;;;;;0.19;66.49;96935.83;1663294;86;21329;-65
2021/03/22 01:42:11;;;;;;;4.10;2.40;;;;;;;0.20;66.83;96943.82;1663491;86;21744;-65
2021/03/22 01:44:50;;;;;;;6.30;5.03;;;;;;;0.20;66.85;96941.27;1663471;85;21205;-64
2021/03/22 01:47:23;;;;;;;4.33;2.47;;;;;;;0.07;67.94;96940.48;1630820;88;21239;-62
2021/03/22 01:49:56;;;;;;;5.00;2.92;;;;;;;0.05;68.02;96938.93;1662804;84;21309;-60
2021/03/22 01:52:27;;;;;;;4.30;2.75;;;;;;;0.05;67.83;96937.20;1663535;85;21166;-64
2021/03/22 01:54:55;;;;;;;1.95;1.72;;;;;;;0.07;67.96;96926.44;1663464;86;21297;-68
2021/03/22 01:57:31;;;;;;;2.95;2.17;;;;;;;0.07;67.82;96923.89;1663783;86;21195;-62
2021/03/22 02:00:28;;;;;;;3.67;3.27;;;;;;;0.11;67.67;96929.59;1663975;86;21190;-62
2021/03/22 02:03:06;;;;;;;;;;;;;;;0.14;67.44;96926.38;1676901;84;21144;-63
2021/03/22 02:05:38;;;;;;;2.85;2.65;;;;;;;0.15;67.29;96924.19;1689729;85;20561;-62
2021/03/22 02:08:21;;;;;;;6.45;3.67;;;;;;;0.15;66.96;96926.74;1666834;85;21183;-62
2021/03/22 02:10:50;;;;;;;2.37;1.65;;;;;;;0.15;66.81;96931.84;1689230;85;21170;-61
2021/03/22 02:13:26;;;;;;;3.52;3.22;;;;;;;0.12;67.10;96921.03;1689700;85;21747;-62
2021/03/22 02:16:11;;;;;;;3.70;3.40;;;;;;;0.04;66.93;96924.07;1688763;83;21187;-62
2021/03/22 02:19:24;;;;;;;7.72;2.77;;;;;;;-0.01;66.85;96919.30;1689484;83;21112;-61
2021/03/22 02:22:39;;;;;;;2.58;2.37;;;;;;;-0.08;67.05;96919.82;1689743;85;21207;-62
2021/03/22 02:25:35;;;;;;;2.02;1.82;;;;;;;-0.13;67.02;96918.02;1689661;85;21211;-62
2021/03/22 02:28:33;;;;;;;2.87;2.55;;;;;;;-0.17;66.97;96922.97;1689722;85;21171;-64
2021/03/22 02:31:40;;;;;;;2.62;2.37;;;;;;;-0.19;66.88;96924.80;1689743;85;21183;-64
2021/03/22 02:34:19;;;;;;;1.62;1.52;;;;;;;-0.23;66.94;96920.81;1689766;85;21180;-64
2021/03/22 02:37:56;;;;;;;3.58;3.27;;;;;;;-0.23;67.70;96925.91;1804148;78;24200;-65
2021/03/22 02:44:28;;;;;;;1.82;1.72;;;;;;;-0.42;68.11;96916.11;1717565;82;21617;-66
2021/03/22 02:47:04;;;;;;;16.55;1.45;;;;;;;-0.47;67.34;96922.78;1652524;84;21212;-64
2021/03/22 02:49:38;;;;;;;3.17;2.42;;;;;;;-0.47;67.34;96922.78;1702116;83;21163;-66
2021/03/22 02:52:27;;;;;;;2.67;2.40;;;;;;;-0.51;67.51;96922.63;1696137;83;21203;-65
2021/03/22 02:57:58;;;;;;;7.05;3.67;;;;;;;-0.77;68.06;96910.76;1622321;87;21161;-66
2021/03/22 03:00:35;;;;;;;3.90;2.03;;;;;;;-0.77;68.06;96910.76;1623470;86;21225;-66
2021/03/22 03:03:08;;;;;;;2.60;2.25;;;;;;;-0.86;68.74;96921.56;1628002;86;21656;-64
2021/03/22 03:05:37;;;;;;;2.42;2.20;;;;;;;-0.86;68.74;96921.56;1620057;86;21205;-65
2021/03/22 03:08:12;;;;;;;3.60;2.45;;;;;;;-0.92;68.69;96918.12;1633839;86;21157;-66
2021/03/22 03:10:40;;;;;;;2.95;2.22;;;;;;;-0.97;68.72;96918.41;1610726;87;21617;-64
2021/03/22 03:13:09;;;;;;;2.67;1.62;;;;;;;-1.02;68.88;96919.63;1621191;87;21261;-61
2021/03/22 03:15:38;;;;;;;3.27;2.60;;;;;;;-1.07;69.07;96922.91;1641450;86;21293;-61
2021/03/22 03:18:06;;;;;;;9.63;2.25;;;;;;;-1.15;69.06;96918.30;1600825;87;21252;-63
2021/03/22 03:20:34;;;;;;;2.85;2.22;;;;;;;-1.19;69.21;96928.77;1611285;87;21639;-66
2021/03/22 03:23:03;;;;;;;4.25;2.83;;;;;;;-1.24;69.10;96917.59;1636685;86;21193;-66
2021/03/22 03:25:31;;;;;;;2.40;1.95;;;;;;;-1.24;69.05;96919.32;1668626;84;21166;-66
2021/03/22 03:28:07;;;;;;;3.60;2.75;;;;;;;-1.29;69.11;96922.63;1694887;81;21598;-67
2021/03/22 03:30:38;;;;;;;4.12;3.42;;;;;;;-1.32;69.25;96919.01;1693319;82;21205;-66
2021/03/22 03:33:11;;;;;;;3.15;2.33;;;;;;;-1.37;69.48;96915.47;1716404;82;21169;-66
2021/03/22 03:35:42;;;;;;;7.08;3.00;;;;;;;-1.37;69.48;96915.47;1721489;82;21181;-66
2021/03/22 03:38:11;;;;;;;8.93;2.98;;;;;;;-1.40;69.48;96918.18;1750324;80;21168;-66
2021/03/22 03:40:46;;;;;;;4.60;2.92;;;;;;;-1.41;69.49;96918.30;1722065;80;21175;-66
2021/03/22 03:43:16;;;;;;;7.95;3.33;;;;;;;-1.42;69.68;96915.38;1761854;80;21242;-66
2021/03/22 03:45:49;;;;;;;7.40;4.17;;;;;;;-1.44;69.78;96917.55;1776615;79;21168;-66
2021/03/22 03:48:24;;;;;;;3.72;2.47;;;;;;;-1.46;69.79;96913.03;1774237;79;21175;-64
2021/03/22 03:50:57;;;;;;;2.72;2.55;;;;;;;-1.45;69.81;96917.22;1773300;80;21165;-66
2021/03/22 03:53:27;;;;;;;5.95;3.20;;;;;;;-1.48;70.03;96909.74;1779466;80;21252;-67
2021/03/22 03:55:57;;;;;;;4.40;2.10;;;;;;;-1.54;70.12;96903.77;1774200;80;21173;-64
2021/03/22 03:58:26;;;;;;;4.42;3.83;;;;;;;-1.51;70.19;96906.57;1772323;79;21161;-66
2021/03/22 04:00:54;;;;;;;3.10;2.67;;;;;;;-1.54;70.22;96907.59;1761987;79;21169;-67
2021/03/22 04:03:33;;;;;;;8.05;2.35;;;;;;;-1.56;70.35;96918.34;1757895;79;21162;-66
2021/03/22 04:06:28;;;;;;;5.92;3.77;;;;;;;-1.59;70.43;96909.59;1770602;80;21177;-66
2021/03/22 04:09:06;;;;;;;2.90;1.67;;;;;;;-1.63;70.75;96908.59;1699047;81;21250;-66
2021/03/22 04:11:42;;;;;;;5.95;2.08;;;;;;;-1.69;71.12;96904.71;1703281;81;21178;-65
2021/03/22 04:14:24;;;;;;;4.58;2.37;;;;;;;-1.70;71.08;96909.88;1690646;81;21722;-65
2021/03/22 04:16:52;;;;;;;4.20;2.80;;;;;;;-1.74;71.33;96905.89;1687602;84;21125;-65
2021/03/22 04:19:22;;;;;;;3.55;3.27;;;;;;;-1.77;71.31;96905.63;1683369;84;21172;-65
2021/03/22 04:21:51;;;;;;;3.00;2.65;;;;;;;-1.79;71.47;96910.46;1689617;83;21162;-65
2021/03/22 04:24:20;;;;;;;3.08;2.75;;;;;;;-1.82;71.42;96901.27;1683464;83;21214;-65
2021/03/22 04:26:48;;;;;;;2.77;2.58;;;;;;;-1.83;71.32;96899.66;1687169;83;21199;-66
2021/03/22 04:29:16;;;;;;;5.42;4.62;;;;;;;-1.84;71.29;96903.09;1692700;83;21211;-64
2021/03/22 04:31:44;;;;;;;2.40;1.72;;;;;;;-1.83;71.38;96902.65;1685770;83;21165;-67
2021/03/22 04:34:13;;;;;;;3.27;2.98;;;;;;;-1.86;71.47;96903.62;1688974;83;21262;-65
2021/03/22 04:36:41;;;;;;;4.90;3.27;;;;;;;-1.87;71.59;96895.66;1705787;81;21179;-67
2021/03/22 04:39:10;;;;;;;3.52;3.22;;;;;;;-1.90;71.71;96898.36;1683988;82;21238;-66
2021/03/22 04:41:39;;;;;;;2.55;1.55;;;;;;;-1.92;71.86;96897.66;1691355;81;21170;-66
2021/03/22 04:44:09;;;;;;;3.58;3.25;;;;;;;-1.95;71.96;96899.12;1691741;81;21218;-66
2021/03/22 04:46:39;;;;;;;5.28;3.25;;;;;;;-1.98;71.91;96900.55;1695319;81;21163;-66
2021/03/22 04:49:09;;;;;;;4.40;2.80;;;;;;;-2.01;71.87;96902.01;1695937;82;21206;-66
2021/03/22 04:51:37;;;;;;;4.95;3.90;;;;;;;-2.05;71.75;96903.92;1697997;81;21249;-66
2021/03/22 04:54:07;;;;;;;2.52;2.27;;;;;;;-2.05;71.48;96902.65;1701878;82;21209;-66
2021/03/22 04:56:35;;;;;;;4.40;2.98;;;;;;;-2.03;71.50;96903.39;1694403;82;21139;-66
2021/03/22 04:59:04;;;;;;;3.20;0.93;;;;;;;-2.00;71.33;96896.84;1697310;81;21156;-66
2021/03/22 05:01:32;;;;;;;7.83;2.17;;;;;;;-1.96;71.72;96897.47;1662340;84;21183;-66
2021/03/22 05:04:00;;;;;;;2.15;1.95;;;;;;;-1.92;71.64;96891.29;1695264;81;21213;-66
2021/03/22 05:06:30;;;;;;;3.50;2.42;;;;;;;-1.87;71.82;96894.38;1703743;81;21146;-66
2021/03/22 05:08:58;;;;;;;3.10;2.77;;;;;;;-1.82;71.84;96894.91;1694254;81;21611;-65
2021/03/22 05:11:28;;;;;;;3.17;2.80;;;;;;;-1.79;71.72;96893.44;1696441;82;21627;-66
2021/03/22 05:13:58;;;;;;;1.75;1.40;;;;;;;-1.73;71.66;96898.63;1684734;83;21167;-66
2021/03/22 05:16:26;;;;;;;1.70;1.60;;;;;;;-1.67;71.68;96897.78;1706590;81;21166;-66
2021/03/22 05:18:54;;;;;;;3.62;2.47;;;;;;;-1.61;71.47;96889.79;1668437;84;21250;-66
2021/03/22 05:21:22;;;;;;;3.12;2.25;;;;;;;-1.52;71.44;96890.95;1708384;82;21599;-65
2021/03/22 05:23:49;;;;;;;3.12;2.83;;;;;;;-1.45;71.29;96893.03;1686931;83;21722;-65
2021/03/22 05:26:17;;;;;;;3.05;2.47;;;;;;;-1.36;71.12;96892.89;1715167;81;21182;-66
2021/03/22 05:28:45;;;;;;;3.52;2.17;;;;;;;-1.29;71.24;96892.89;1720841;81;21211;-66
2021/03/22 05:31:13;;;;;;;2.52;2.33;;;;;;;-1.14;70.95;96896.19;1687444;83;21212;-66
2021/03/22 05:33:42;;;;;;;2.70;2.47;;;;;;;-1.00;70.21;96888.02;1712890;82;21603;-65
2021/03/22 05:36:10;;;;;;;4.28;2.02;;;;;;;-1.00;70.21;96888.02;1717979;81;21186;-67
2021/03/22 05:38:38;;;;;;;2.05;1.82;;;;;;;-0.86;70.16;96893.53;1720756;81;21143;-65
2021/03/22 05:41:11;;;;;;;3.27;2.22;;;;;;;-0.76;69.74;96893.28;1716278;81;21194;-65
2021/03/22 05:44:14;;;;;;;4.90;2.62;;;;;;;-0.64;70.05;96896.31;1721826;81;21187;-66
2021/03/22 05:47:06;;;;;;;3.30;2.33;;;;;;;-0.52;69.56;96898.06;1662291;83;21254;-65
2021/03/22 05:49:47;;;;;;;3.33;2.52;;;;;;;-0.39;68.18;96893.44;1664788;85;21173;-65
2021/03/22 05:52:59;;;;;;;4.92;4.45;;;;;;;-0.23;68.79;96899.13;1680892;83;21182;-65
2021/03/22 05:55:53;;;;;;;4.62;4.22;;;;;;;-0.08;67.86;96898.13;1682613;83;21211;-65
2021/03/22 05:58:33;;;;;;;2.77;2.58;;;;;;;0.09;66.22;96896.97;1679411;83;21227;-65
2021/03/22 06:01:28;;;;;;;4.45;2.77;;;;;;;0.25;66.86;96895.82;1676985;83;21183;-65
2021/03/22 06:04:08;;;;;;;2.33;2.00;;;;;;;0.43;66.43;96900.11;1642749;85;21188;-65
2021/03/22 06:06:43;;;;;;;6.17;2.45;;;;;;;0.59;67.23;96887.08;1637080;85;21657;-65
2021/03/22 06:09:25;;;;;;;2.42;2.22;;;;;;;0.81;66.41;96891.06;1642333;85;21164;-65
2021/03/22 06:12:52;;;;;;;6.78;3.58;;;;;;;0.97;65.71;96891.60;1683833;84;21255;-65
2021/03/22 06:15:55;;;;;;;3.45;2.12;;;;;;;1.14;64.49;96893.74;1666441;84;21611;-65
2021/03/22 06:18:55;;;;;;;2.47;2.27;;;;;;;1.36;63.60;96886.63;1659760;84;21257;-65
2021/03/22 06:21:26;;;;;;;3.12;2.20;;;;;;;1.48;62.05;96891.30;1661820;84;21189;-64
2021/03/22 06:23:54;;;;;;;4.62;3.25;;;;;;;1.59;61.33;96892.14;1648434;85;21274;-65
2021/03/22 06:27:02;;;;;;;5.83;4.47;;;;;;;1.61;61.09;96886.89;1672855;84;21602;-65
2021/03/22 06:29:39;;;;;;;4.80;3.45;;;;;;;1.78;62.46;96888.56;1717240;83;21162;-65
2021/03/22 06:32:33;;;;;;;3.62;2.85;;;;;;;2.02;62.41;96883.81;1692166;82;21216;-62
2021/03/22 06:38:12;;;;;;;4.12;3.80;;;;;;;2.18;57.81;96872.75;1725678;82;21586;-62
2021/03/22 06:40:40;;;;;;;7.60;3.90;;;;;;;2.47;59.56;96876.42;1723425;82;21253;-65
2021/03/22 06:43:36;;;;;;;7.22;5.67;;;;;;;2.63;61.12;96874.77;1723102;82;21173;-64
2021/03/22 06:46:12;;;;;;;;;;;;;;;2.69;57.05;96875.55;1633134;86;21216;-64
2021/03/22 06:48:41;;;;;;;11.95;9.40;;;;;;;2.91;58.70;96876.79;1615394;87;20152;-64
2021/03/22 06:51:15;;;;;;;6.22;4.22;;;;;;;3.04;57.83;96877.42;1680964;85;21150;-63
2021/03/22 06:53:51;;;;;;;9.55;4.58;;;;;;;2.84;54.71;96876.94;1634549;85;21172;-68
2021/03/22 06:56:27;;;;;;;5.25;3.65;;;;;;;2.87;57.61;96881.81;1647615;85;21202;-68
2021/03/22 06:59:19;;;;;;;5.78;3.30;;;;;;;2.90;55.51;96880.28;1672653;84;21153;-68
2021/03/22 07:01:50;;;;;;;6.53;4.75;;;;;;;3.02;58.65;96878.49;1654663;85;21192;-68
2021/03/22 07:04:47;;;;;;;6.45;4.50;;;;;;;3.22;58.56;96877.25;1633331;85;21204;-69
2021/03/22 07:07:24;;;;;;;8.00;4.40;;;;;;;3.22;55.72;96879.00;1617973;86;21241;-64
2021/03/22 07:09:59;;;;;;;7.67;4.95;;;;;;;3.35;53.57;96881.72;1670302;83;21250;-64
2021/03/22 07:12:35;;;;;;;8.25;5.37;;;;;;;3.45;52.97;96886.11;1670565;83;21200;-64
2021/03/22 07:15:25;;;;;;;6.30;4.62;;;;;;;3.39;52.34;96889.16;1669739;84;21600;-66
2021/03/22 07:18:22;;;;;;;8.75;4.35;;;;;;;3.23;52.34;96899.87;1671344;84;21649;-63
2021/03/22 07:21:02;;;;;;;8.93;4.97;;;;;;;3.30;51.35;96904.39;1664618;85;21215;-63
2021/03/22 07:23:47;;;;;;;3.50;2.42;;;;;;;3.44;50.63;96897.30;1664504;85;21155;-63
2021/03/22 07:26:49;;;;;;;4.15;2.60;;;;;;;3.80;56.88;96902.01;1668662;85;21617;-63
2021/03/22 07:30:06;;;;;;;6.17;4.03;;;;;;;4.04;52.99;96899.98;1667087;84;22349;-67
2021/03/22 07:32:54;;;;;;;5.90;3.45;;;;;;;4.16;49.61;96896.36;1680210;85;21625;-64
2021/03/22 07:36:16;;;;;;;6.90;3.42;;;;;;;4.20;49.66;96895.16;1666932;85;21636;-64
2021/03/22 07:39:12;;;;;;;4.80;4.20;;;;;;;4.11;49.36;96892.56;1694607;82;21158;-63
2021/03/22 07:42:19;;;;;;;5.47;3.47;;;;;;;4.17;47.93;96892.85;1702421;81;21568;-64
2021/03/22 07:45:34;;;;;;;8.98;3.02;;;;;;;4.40;49.98;96887.55;1705003;81;21588;-65
2021/03/22 07:48:32;;;;;;;4.10;2.70;;;;;;;4.56;47.72;96895.55;1689648;84;21174;-67
2021/03/22 07:51:51;;;;;;;7.05;4.45;;;;;;;4.57;46.07;96894.61;1672145;83;21140;-66
2021/03/22 07:57:57;;;;;;;8.63;5.95;;;;;;;4.36;46.73;96895.96;1742229;82;21932;-64
2021/03/22 08:00:57;;;;;;;4.95;3.55;;;;;;;4.35;48.21;96899.50;1745175;80;21159;-64
2021/03/22 08:03:51;;;;;;;4.85;3.10;;;;;;;4.64;46.65;96900.85;1671065;83;21151;-69
2021/03/22 08:06:41;;;;;;;6.70;4.92;;;;;;;4.78;51.25;96896.64;1735302;80;21248;-64
2021/03/22 08:09:24;;;;;;;9.55;4.17;;;;;;;4.96;48.39;96898.89;1732164;81;21183;-64
2021/03/22 08:12:18;;;;;;;6.08;3.95;;;;;;;5.12;45.55;96895.78;1739950;81;21374;-66
2021/03/22 08:14:47;;;;;;;9.33;4.25;;;;;;;5.25;44.24;96893.27;1740378;81;21138;-67
2021/03/22 08:17:51;;;;;;;5.70;3.37;;;;;;;5.44;43.59;96890.37;1734721;81;21203;-64
2021/03/22 08:20:35;;;;;;;5.83;3.72;;;;;;;5.60;41.10;96884.19;1736094;81;21143;-64
2021/03/22 08:23:38;;;;;;;5.33;3.35;;;;;;;5.71;41.54;96893.86;1736784;81;21191;-64
2021/03/22 08:26:11;;;;;;;13.32;3.80;;;;;;;5.97;48.90;96883.78;1610189;88;21695;-63
2021/03/22 08:29:02;;;;;;;4.92;3.00;;;;;;;6.20;43.84;96885.06;1621882;86;21235;-64
2021/03/22 08:32:11;;;;;;;7.78;4.15;;;;;;;6.44;41.48;96877.29;1647666;86;21166;-63
2021/03/22 08:34:53;;;;;;;6.92;4.05;;;;;;;6.36;38.25;96878.00;1671124;84;21192;-63
2021/03/22 08:37:26;;;;;;;15.43;9.25;;;;;;;6.44;38.92;96879.39;1670134;82;21199;-64
2021/03/22 08:40:03;;;;;;;23.55;11.55;;;;;;;6.64;40.12;96869.31;1633193;86;21271;-65
2021/03/22 08:42:39;;;;;;;13.80;8.20;;;;;;;6.79;35.87;96865.75;1635034;87;21179;-65
2021/03/22 08:45:51;;;;;;;13.65;4.97;;;;;;;7.12;43.08;96869.44;1657583;85;21184;-65
2021/03/22 08:48:25;;;;;;;7.22;4.10;;;;;;;7.46;38.96;96868.30;1668041;85;21190;-65
2021/03/22 08:50:55;;;;;;;5.95;3.42;;;;;;;7.57;34.15;96866.77;1660650;85;21195;-65
2021/03/22 08:53:28;;;;;;;4.62;3.15;;;;;;;7.89;43.24;96860.52;1644358;85;21183;-65
2021/03/22 08:56:01;;;;;;;5.42;3.37;;;;;;;8.30;41.45;96860.27;1662691;85;21251;-66
2021/03/22 08:58:40;;;;;;;14.63;4.33;;;;;;;8.29;33.45;96863.81;1663078;85;21157;-66
2021/03/22 09:01:22;;;;;;;7.25;4.08;;;;;;;7.78;33.15;96860.75;1607037;87;21199;-64
2021/03/22 09:03:52;;;;;;;7.03;3.25;;;;;;;8.23;32.77;96855.36;1604429;86;21233;-65
2021/03/22 09:06:28;;;;;;;4.85;3.08;;;;;;;8.68;33.19;96852.95;1601130;87;21199;-65
2021/03/22 09:09:19;;;;;;;5.90;3.27;;;;;;;8.97;39.93;96853.36;1608824;88;21208;-64
2021/03/22 09:11:51;;;;;;;5.42;3.22;;;;;;;9.27;37.06;96852.73;1622920;87;21194;-65
2021/03/22 09:17:36;;;;;;;6.10;3.62;;;;;;;9.43;37.00;96854.52;1632363;86;21239;-65
2021/03/22 09:20:16;;;;;;;7.12;4.20;;;;;;;9.55;45.05;96858.41;1637319;86;21242;-65
2021/03/22 09:22:55;;;;;;;42.17;20.05;;;;;;;9.28;33.73;96856.14;1633622;86;21187;-64
2021/03/22 09:25:49;;;;;;;37.10;16.77;;;;;;;9.05;40.50;96858.07;1632767;86;21608;-64
2021/03/22 09:28:49;;;;;;;13.00;6.10;;;;;;;9.16;39.43;96866.48;1630690;87;21234;-64
2021/03/22 09:31:25;;;;;;;7.62;3.80;;;;;;;9.15;33.73;96859.20;1664024;83;21205;-64
2021/03/22 09:34:19;;;;;;;6.72;4.25;;;;;;;8.81;33.86;96861.90;1671760;83;21622;-64
2021/03/22 09:36:49;;;;;;;4.47;3.00;;;;;;;9.09;35.04;96860.33;1662594;85;21233;-63
2021/03/22 09:39:25;;;;;;;5.78;3.08;;;;;;;9.62;40.05;96862.44;1670862;84;21642;-65
2021/03/22 09:41:56;;;;;;;;;;;;;;;9.92;42.18;96862.56;1669562;84;21226;-64
2021/03/22 09:44:38;;;;;;;3.33;1.62;;;;;;;10.18;37.69;96862.88;1663378;84;20503;-65
2021/03/22 09:47:17;;;;;;;5.08;2.22;;;;;;;10.37;44.77;96858.59;1668902;84;21196;-65
2021/03/22 09:50:24;;;;;;;4.83;3.10;;;;;;;10.55;43.41;96861.75;1670438;84;21193;-66
2021/03/22 09:52:57;;;;;;;4.17;3.07;;;;;;;10.19;33.64;96862.72;1666657;84;21193;-65
2021/03/22 09:55:31;;;;;;;4.65;2.95;;;;;;;10.11;34.92;96865.78;1679472;83;21463;-66
2021/03/22 09:58:19;;;;;;;5.05;2.98;;;;;;;10.47;39.75;96863.89;1676957;83;21248;-64
2021/03/22 10:00:58;;;;;;;4.28;2.67;;;;;;;10.69;37.96;96863.65;1679400;82;21596;-65
2021/03/22 10:03:49;;;;;;;4.78;3.08;;;;;;;10.90;35.79;96862.55;1679730;84;21633;-65
2021/03/22 10:06:59;;;;;;;5.17;2.72;;;;;;;10.27;31.32;96861.88;1664128;84;21611;-65
2021/03/22 10:09:50;;;;;;;6.28;3.42;;;;;;;9.69;33.64;96861.63;1684867;83;21247;-64
2021/03/22 10:12:53;;;;;;;7.72;3.67;;;;;;;9.50;34.16;96865.85;1712166;81;21148;-65
2021/03/22 10:15:52;;;;;;;2.87;2.02;;;;;;;9.20;32.67;96858.72;1639773;86;21674;-65
2021/03/22 10:18:32;;;;;;;3.37;2.02;;;;;;;9.91;40.13;96854.97;1635878;86;21218;-65
2021/03/22 10:21:12;;;;;;;5.40;2.67;;;;;;;10.17;33.81;96856.05;1627391;87;21569;-66
2021/03/22 10:23:58;;;;;;;7.95;3.10;;;;;;;9.82;31.79;96854.65;1628247;86;21190;-65
2021/03/22 10:26:46;;;;;;;4.90;2.10;;;;;;;10.17;32.13;96859.47;1624286;86;21584;-65
2021/03/22 10:29:26;;;;;;;3.83;2.45;;;;;;;10.56;38.31;96864.67;1633395;86;21179;-65
2021/03/22 10:32:05;;;;;;;4.92;2.85;;;;;;;10.95;34.52;96856.36;1636066;86;21237;-66
2021/03/22 10:34:54;;;;;;;4.20;2.67;;;;;;;10.74;30.17;96863.93;1707328;82;21211;-65
2021/03/22 10:37:49;;;;;;;3.22;2.22;;;;;;;11.29;32.31;96862.94;1714640;82;21389;-68
2021/03/22 10:40:37;;;;;;;5.37;3.45;;;;;;;11.70;40.32;96866.85;1644103;85;21256;-65
2021/03/22 10:43:10;;;;;;;4.65;2.42;;;;;;;11.25;30.08;96862.97;1641785;85;21203;-65
2021/03/22 10:45:42;;;;;;;4.87;2.90;;;;;;;11.94;40.57;96863.73;1640194;86;21239;-65
2021/03/22 10:48:38;;;;;;;3.45;2.27;;;;;;;12.08;30.66;96862.94;1627873;85;21188;-65
2021/03/22 10:51:11;;;;;;;3.70;1.85;;;;;;;12.34;37.67;96868.50;1649974;86;21155;-65
2021/03/22 10:54:02;;;;;;;3.17;1.92;;;;;;;12.78;38.71;96867.97;1654687;86;21159;-65
2021/03/22 10:57:09;;;;;;;3.55;2.20;;;;;;;13.04;39.51;96873.95;1660154;86;21175;-65
2021/03/22 10:59:45;;;;;;;3.98;2.40;;;;;;;12.75;34.37;96868.34;1590525;88;21659;-68
2021/03/22 11:02:45;;;;;;;3.80;1.92;;;;;;;13.20;39.28;96871.65;1659193;85;21186;-64
2021/03/22 11:05:18;;;;;;;2.67;1.72;;;;;;;13.29;36.61;96872.66;1664288;85;21612;-64
2021/03/22 11:08:06;;;;;;;4.42;2.50;;;;;;;13.24;34.32;96864.58;1659453;85;21629;-63
2021/03/22 11:10:36;;;;;;;3.85;2.55;;;;;;;13.24;33.67;96868.49;1663751;85;21635;-65
2021/03/22 11:15:49;;;;;;;3.55;2.05;;;;;;;13.17;36.94;96872.03;1677487;83;22193;-65
2021/03/22 11:18:19;;;;;;;4.42;2.30;;;;;;;13.04;34.28;96871.36;1639201;84;21207;-64
2021/03/22 11:20:52;;;;;;;4.08;2.02;;;;;;;12.93;34.02;96865.33;1633687;86;21191;-65
2021/03/22 11:23:26;;;;;;;4.37;2.55;;;;;;;12.87;34.32;96867.38;1638060;86;21194;-64
2021/03/22 11:25:58;;;;;;;4.17;2.02;;;;;;;12.60;28.30;96862.84;1637932;86;21231;-65
2021/03/22 11:28:30;;;;;;;2.83;1.98;;;;;;;12.78;36.59;96865.86;1645105;85;21187;-64
2021/03/22 11:31:08;;;;;;;2.55;1.98;;;;;;;12.74;36.00;96871.92;1638599;85;21622;-64
2021/03/22 11:36:41;;;;;;;4.37;2.33;;;;;;;12.63;33.35;96865.08;1638641;86;22456;-64
2021/03/22 11:39:39;;;;;;;3.77;2.20;;;;;;;12.58;36.29;96865.61;1643379;84;21235;-64
2021/03/22 11:42:27;;;;;;;3.50;2.15;;;;;;;12.61;35.19;96863.95;1592499;88;21636;-64
2021/03/22 11:44:55;;;;;;;3.25;1.98;;;;;;;12.46;36.71;96865.76;1585372;89;21192;-65
2021/03/22 11:47:45;;;;;;;3.87;2.12;;;;;;;12.26;38.03;96862.08;1589791;89;21827;-64
2021/03/22 11:50:44;;;;;;;4.20;2.65;;;;;;;12.04;38.01;96865.58;1592486;89;21286;-63
2021/03/22 11:53:21;;;;;;;3.33;1.82;;;;;;;11.71;37.11;96861.16;1645686;86;21242;-65
2021/03/22 11:55:59;;;;;;;4.70;1.70;;;;;;;11.52;40.95;96864.22;1638757;86;21273;-64
2021/03/22 12:01:27;;;;;;;4.50;2.30;;;;;;;11.06;38.18;96871.22;1669258;83;21628;-64
2021/03/22 12:04:09;;;;;;;4.22;2.55;;;;;;;10.95;36.21;96865.45;1665151;84;21175;-63
2021/03/22 12:07:06;;;;;;;4.62;2.05;;;;;;;10.93;37.42;96867.91;1664856;85;21621;-64
2021/03/22 12:09:39;;;;;;;3.17;2.02;;;;;;;10.95;43.58;96865.94;1670406;83;21210;-66
2021/03/22 12:12:13;;;;;;;6.75;2.10;;;;;;;10.80;43.83;96865.86;1653999;84;21581;-66
2021/03/22 12:14:42;;;;;;;2.85;2.15;;;;;;;10.61;38.77;96868.06;1663706;84;21619;-63
2021/03/22 12:17:29;;;;;;;3.20;1.90;;;;;;;10.49;39.09;96874.12;1662415;83;21231;-64
2021/03/22 12:19:57;;;;;;;2.80;1.82;;;;;;;10.36;38.44;96861.67;1671788;83;21164;-64
2021/03/22 12:22:26;;;;;;;3.22;1.45;;;;;;;10.18;40.35;96866.28;1659303;84;21560;-64
2021/03/22 12:24:55;;;;;;;2.55;1.92;;;;;;;10.04;44.23;96866.13;1674386;83;21739;-64
2021/03/22 12:27:23;;;;;;;3.17;2.05;;;;;;;9.85;42.99;96877.16;1671391;84;21180;-65
2021/03/22 12:29:51;;;;;;;4.03;2.17;;;;;;;9.65;39.12;96871.22;1678478;84;21207;-65
2021/03/22 12:38:35;;;;;;;3.62;1.62;;;;;;;9.13;44.17;96865.52;1646945;84;21173;-66
2021/03/22 12:41:05;;;;;;;2.70;1.70;;;;;;;8.99;43.31;96866.46;1675010;83;21211;-65
2021/03/22 12:43:34;;;;;;;2.27;1.60;;;;;;;8.89;42.46;96861.92;1662219;84;21177;-64
2021/03/22 12:46:03;;;;;;;3.20;1.95;;;;;;;8.71;44.15;96879.84;1677605;83;21191;-64
2021/03/22 12:48:31;;;;;;;3.83;2.17;;;;;;;8.57;45.02;96878.64;1684269;84;21258;-64
2021/03/22 12:50:59;;;;;;;2.10;1.40;;;;;;;8.43;44.36;96881.35;1678897;83;21182;-64
2021/03/22 12:53:28;;;;;;;1.80;1.50;;;;;;;8.36;42.47;96884.23;1648028;85;21197;-65
2021/03/22 12:55:58;;;;;;;3.47;2.10;;;;;;;8.29;45.71;96882.40;1645392;86;21195;-65
2021/03/22 12:58:27;;;;;;;2.33;1.82;;;;;;;8.21;43.76;96882.35;1608936;86;21291;-64
2021/03/22 13:00:57;;;;;;;3.15;2.15;;;;;;;8.20;41.75;96890.59;1617776;86;21195;-64
2021/03/22 13:03:28;;;;;;;3.77;1.92;;;;;;;8.17;45.34;96890.09;1626902;86;21268;-64
2021/03/22 13:05:58;;;;;;;3.37;2.27;;;;;;;8.08;43.88;96877.59;1674993;84;21598;-65